createdAt,value
2023-01-08T00:02:00.992Z,102.40
2023-01-08T00:07:02.794Z,110.20
2023-01-08T00:12:05.769Z,110.70
2023-01-08T00:17:08.487Z,108.90
2023-01-08T00:22:10.222Z,111.30
2023-01-08T00:27:12.040Z,100.60
2023-01-08T00:32:13.835Z,104.60
2023-01-08T00:37:20.074Z,140.50
2023-01-08T00:42:21.870Z,113.70
2023-01-08T00:47:23.657Z,130.40
2023-01-08T00:52:25.815Z,120.60
2023-01-08T00:57:33.194Z,112.50
2023-01-08T01:02:36.680Z,119.50
2023-01-08T01:07:38.389Z,118.50
2023-01-08T01:12:40.434Z,108.80
2023-01-08T01:17:43.448Z,108.80
2023-01-08T01:22:45.329Z,87.20
2023-01-08T01:27:47.164Z,82.70
2023-01-08T01:32:49.029Z,85.00
2023-01-08T01:37:50.789Z,81.90
2023-01-08T01:47:56.060Z,95.10
2023-01-08T01:53:06.823Z,123.60
2023-01-08T01:58:20.695Z,108.00
2023-01-08T02:03:26.632Z,97.10
2023-01-08T02:08:42.235Z,100.30
2023-01-08T02:13:54.840Z,91.60
2023-01-08T02:19:14.106Z,80.70
2023-01-08T02:24:50.197Z,78.20
2023-01-08T02:29:54.993Z,81.20
2023-01-08T02:34:56.656Z,79.70
2023-01-08T02:45:37.226Z,78.60
2023-01-08T02:50:51.445Z,86.20
2023-01-08T02:55:58.792Z,85.60
2023-01-08T03:01:07.053Z,78.60
2023-01-08T03:06:13.102Z,85.60
2023-01-08T03:11:17.888Z,79.90
2023-01-08T03:16:52.689Z,84.10
2023-01-08T03:21:55.730Z,79.00
2023-01-08T03:27:00.935Z,77.90
2023-01-08T03:32:06.750Z,80.80
2023-01-08T03:37:10.983Z,77.60
2023-01-08T03:42:16.743Z,74.00
2023-01-08T03:47:21.786Z,73.40
2023-01-08T03:52:28.928Z,71.50
2023-01-08T03:57:30.690Z,73.30
2023-01-08T04:02:32.599Z,72.60
2023-01-08T04:07:34.582Z,72.00
2023-01-08T04:12:36.402Z,71.50
2023-01-08T04:17:38.469Z,77.70
2023-01-08T04:22:40.155Z,75.20
2023-01-08T04:27:41.922Z,69.60
2023-01-08T04:32:43.657Z,66.30
2023-01-08T04:37:45.396Z,70.60
2023-01-08T04:42:47.168Z,74.90
2023-01-08T04:47:48.854Z,73.10
2023-01-08T04:52:50.697Z,70.00
2023-01-08T04:57:52.421Z,67.20
2023-01-08T05:02:55.413Z,70.60
2023-01-08T05:07:57.332Z,71.50
2023-01-08T05:13:02.125Z,66.10
2023-01-08T05:18:05.973Z,71.40
2023-01-08T05:23:07.692Z,70.20
2023-01-08T05:28:09.547Z,67.30
2023-01-08T05:33:11.203Z,61.90
2023-01-08T05:38:13.213Z,60.60
2023-01-08T05:43:15.045Z,61.30
2023-01-08T05:48:16.828Z,60.10
2023-01-08T05:53:19.041Z,61.10
2023-01-08T05:58:21.136Z,54.50
2023-01-08T06:03:23.323Z,57.70
2023-01-08T06:08:25.118Z,121.00
2023-01-08T06:13:27.754Z,64.70
2023-01-08T06:18:29.982Z,67.40
2023-01-08T06:23:32.741Z,66.70
2023-01-08T06:28:35.562Z,87.80
2023-01-08T06:33:37.254Z,87.10
2023-01-08T06:38:39.069Z,84.30
2023-01-08T06:43:40.838Z,79.30
2023-01-08T06:48:42.668Z,80.70
2023-01-08T06:53:44.365Z,71.50
2023-01-08T06:58:46.176Z,305.80
2023-01-08T07:08:49.628Z,92.70
2023-01-08T07:13:51.497Z,80.70
2023-01-08T07:18:53.227Z,73.10
2023-01-08T07:23:55.147Z,78.50
2023-01-08T07:28:56.784Z,77.60
2023-01-08T07:44:02.060Z,80.60
2023-01-08T07:49:06.157Z,87.10
2023-01-08T07:54:07.841Z,74.40
2023-01-08T08:09:13.458Z,86.10
2023-01-08T08:14:15.199Z,86.70
2023-01-08T08:19:16.907Z,83.10
2023-01-08T08:24:18.626Z,81.20
2023-01-08T08:29:20.692Z,73.50
2023-01-08T08:34:22.725Z,72.90
2023-01-08T08:39:24.513Z,73.80
2023-01-08T08:44:26.245Z,62.60
2023-01-08T08:49:27.913Z,64.20
2023-01-08T08:54:29.588Z,67.50
2023-01-08T08:59:31.306Z,58.90
2023-01-08T09:04:34.298Z,55.90
2023-01-08T09:09:35.999Z,61.80
2023-01-08T09:14:37.890Z,53.70
2023-01-08T09:19:39.741Z,57.00
2023-01-08T09:24:41.580Z,58.40
2023-01-08T09:30:10.283Z,48.00
2023-01-08T09:35:12.057Z,51.10
2023-01-08T09:40:16.432Z,51.10
2023-01-08T09:45:28.781Z,47.30
2023-01-08T09:50:32.946Z,40.80
2023-01-08T09:55:34.633Z,41.80
2023-01-08T10:00:36.287Z,42.90
2023-01-08T10:05:37.930Z,52.50
2023-01-08T10:10:41.578Z,48.60
2023-01-08T10:15:43.354Z,40.60
2023-01-08T10:20:45.196Z,51.70
2023-01-08T10:25:58.530Z,44.80
2023-01-08T10:31:06.659Z,50.50
2023-01-08T10:36:11.787Z,56.60
2023-01-08T10:41:15.021Z,68.50
2023-01-08T10:46:42.223Z,57.80
2023-01-08T10:51:55.676Z,64.40
2023-01-08T10:56:58.440Z,49.70
2023-01-08T11:02:00.915Z,48.60
2023-01-08T11:07:06.878Z,53.20
2023-01-08T11:12:47.569Z,44.70
2023-01-08T11:17:49.303Z,48.90
2023-01-08T11:22:50.990Z,48.60
2023-01-08T11:27:53.906Z,64.50
2023-01-08T11:33:16.837Z,60.40
2023-01-08T11:38:18.581Z,58.30
2023-01-08T11:43:41.914Z,67.90
2023-01-08T11:49:14.892Z,68.60
2023-01-08T11:54:53.897Z,62.00
2023-01-08T12:00:09.004Z,46.50
2023-01-08T12:05:26.191Z,50.40
2023-01-08T12:10:54.516Z,49.40
2023-01-08T12:16:17.600Z,52.50
2023-01-08T12:21:25.720Z,47.50
2023-01-08T12:26:34.413Z,45.30
2023-01-08T12:32:04.959Z,48.90
2023-01-08T12:37:33.351Z,44.20
2023-01-08T12:42:42.679Z,44.40
2023-01-08T12:47:53.652Z,44.70
2023-01-08T12:53:07.931Z,37.90
2023-01-08T12:58:45.676Z,49.40
2023-01-08T13:03:49.121Z,47.40
2023-01-08T13:08:53.834Z,53.90
2023-01-08T13:14:08.879Z,54.60
2023-01-08T13:19:28.956Z,53.70
2023-01-08T13:24:37.227Z,53.00
2023-01-08T13:29:44.493Z,48.70
2023-01-08T13:34:46.347Z,45.90
2023-01-08T13:39:48.123Z,46.20
2023-01-08T13:44:59.019Z,46.20
2023-01-08T13:50:06.066Z,57.10
2023-01-08T13:55:21.191Z,60.70
2023-01-08T14:00:44.250Z,84.90
2023-01-08T14:05:45.915Z,103.20
2023-01-08T14:10:47.719Z,99.70
2023-01-08T14:15:49.682Z,73.40
2023-01-08T14:20:51.779Z,63.50
2023-01-08T14:25:54.352Z,60.10
2023-01-08T14:30:57.425Z,57.70
2023-01-08T14:36:01.264Z,63.30
2023-01-08T14:41:13.008Z,65.60
2023-01-08T14:46:29.709Z,64.80
2023-01-08T14:51:32.238Z,61.50
2023-01-08T14:56:36.163Z,68.40
2023-01-08T15:01:38.786Z,89.80
2023-01-08T15:06:41.828Z,98.40
2023-01-08T15:12:13.083Z,116.90
2023-01-08T15:17:20.233Z,182.00
2023-01-08T15:22:27.969Z,206.70
2023-01-08T15:27:31.763Z,125.00
2023-01-08T15:32:37.412Z,359.90
2023-01-08T15:37:41.151Z,213.10
2023-01-08T15:43:02.740Z,300.80
2023-01-08T15:53:18.419Z,108.40
2023-01-08T15:58:20.079Z,101.80
2023-01-08T16:03:24.183Z,100.90
2023-01-08T16:08:26.016Z,125.80
2023-01-08T16:13:27.790Z,124.70
2023-01-08T16:18:29.623Z,107.80
2023-01-08T16:23:34.821Z,96.20
2023-01-08T16:28:37.312Z,102.50
2023-01-08T16:33:39.374Z,89.20
2023-01-08T16:38:41.133Z,90.20
2023-01-08T16:43:45.278Z,95.70
2023-01-08T16:48:48.468Z,88.60
2023-01-08T16:53:50.349Z,102.40
2023-01-08T16:58:52.221Z,111.30
2023-01-08T17:03:54.433Z,119.80
2023-01-08T17:08:59.180Z,144.80
2023-01-08T17:14:04.920Z,161.00
2023-01-08T17:19:07.100Z,128.10
2023-01-08T17:24:09.156Z,127.70
2023-01-08T17:29:10.841Z,125.00
2023-01-08T17:34:14.100Z,124.20
2023-01-08T17:39:15.735Z,140.30
2023-01-08T17:44:17.650Z,132.80
2023-01-08T17:49:19.437Z,103.00
2023-01-08T17:54:22.562Z,102.50
2023-01-08T17:59:24.404Z,111.00
2023-01-08T18:04:26.271Z,100.30
2023-01-08T18:09:28.022Z,98.10
2023-01-08T18:14:29.916Z,88.80
2023-01-08T18:19:31.820Z,92.00
2023-01-08T18:24:34.889Z,82.60
2023-01-08T18:29:36.592Z,100.60
2023-01-08T18:34:38.980Z,89.40
2023-01-08T18:39:40.623Z,81.50
2023-01-08T18:44:42.534Z,68.10
2023-01-08T18:49:44.250Z,66.80
2023-01-08T18:54:45.980Z,69.10
2023-01-08T18:59:50.525Z,80.90
2023-01-08T19:04:52.737Z,104.50
2023-01-08T19:09:54.556Z,123.80
2023-01-08T19:14:56.329Z,136.00
2023-01-08T19:19:58.103Z,148.90
2023-01-08T19:25:00.151Z,128.80
2023-01-08T19:30:03.665Z,306.50
2023-01-08T19:35:06.769Z,275.40
2023-01-08T19:40:09.759Z,181.50
2023-01-08T19:45:11.490Z,185.00
2023-01-08T19:50:13.190Z,134.90
2023-01-08T19:55:17.693Z,156.90
2023-01-08T20:00:22.539Z,134.70
2023-01-08T20:05:24.213Z,135.80
2023-01-08T20:10:26.164Z,106.20
2023-01-08T20:15:29.022Z,110.10
2023-01-08T20:20:31.118Z,80.60
2023-01-08T20:25:34.399Z,70.10
2023-01-08T20:30:36.265Z,72.20
2023-01-08T20:35:38.646Z,77.80
2023-01-08T20:40:41.465Z,87.60
2023-01-08T20:45:43.769Z,98.70
2023-01-08T20:50:47.035Z,105.50
2023-01-08T20:55:49.256Z,114.00
2023-01-08T21:00:51.012Z,111.70
2023-01-08T21:05:52.995Z,117.90
2023-01-08T21:11:02.438Z,103.80
2023-01-08T21:16:07.856Z,101.80
2023-01-08T21:21:12.159Z,153.70
2023-01-08T21:26:15.935Z,136.70
2023-01-08T21:31:22.481Z,139.60
2023-01-08T21:36:26.817Z,143.30
2023-01-08T21:41:48.931Z,133.50
2023-01-08T21:46:51.107Z,124.40
2023-01-08T21:52:11.874Z,114.90
2023-01-08T21:57:13.577Z,119.10
2023-01-08T22:02:17.385Z,113.70
2023-01-08T22:07:19.131Z,113.70
2023-01-08T22:12:23.514Z,113.20
2023-01-08T22:17:28.943Z,109.70
2023-01-08T22:22:30.710Z,90.20
2023-01-08T22:27:32.507Z,86.00
2023-01-08T22:32:36.831Z,79.80
2023-01-08T22:37:40.541Z,85.90
2023-01-08T22:42:42.240Z,102.80
2023-01-08T22:47:43.922Z,111.80
2023-01-08T22:52:45.665Z,98.70
2023-01-08T22:57:47.827Z,102.10
2023-01-08T23:02:49.706Z,93.40
2023-01-08T23:07:51.652Z,87.50
2023-01-08T23:12:53.822Z,85.50
2023-01-08T23:17:55.647Z,83.10
2023-01-08T23:22:57.473Z,75.70
2023-01-08T23:27:59.196Z,69.20
2023-01-08T23:33:01.083Z,84.50
2023-01-08T23:38:02.739Z,89.80
2023-01-08T23:43:04.398Z,91.40
2023-01-08T23:48:06.482Z,93.00
2023-01-08T23:53:08.427Z,90.60
2023-01-08T23:58:10.612Z,91.60
